createdAt,value
2022-08-19T00:02:09.092Z,99036.21
2022-08-19T00:12:17.035Z,99025.05
2022-08-19T00:22:22.837Z,99013.25
2022-08-19T00:32:29.359Z,98995.66
2022-08-19T00:42:36.447Z,98988.35
2022-08-19T00:52:47.022Z,98999.04
2022-08-19T01:02:54.649Z,99009.89
2022-08-19T01:13:03.941Z,99010.69
2022-08-19T01:23:10.058Z,99006.59
2022-08-19T01:33:16.677Z,99001.95
2022-08-19T01:43:22.616Z,98983.98
2022-08-19T01:53:30.501Z,98961.84
2022-08-19T02:03:39.924Z,98952.17
2022-08-19T02:13:45.826Z,98940.50
2022-08-19T02:23:52.456Z,98939.96
2022-08-19T02:33:58.869Z,98938.23
2022-08-19T02:44:29.824Z,98934.90
2022-08-19T02:54:32.385Z,98926.00
2022-08-19T03:04:38.114Z,98917.91
2022-08-19T03:14:43.999Z,98920.50
2022-08-19T03:24:49.946Z,98924.45
2022-08-19T03:34:55.914Z,98927.57
2022-08-19T03:45:02.365Z,98940.24
2022-08-19T03:55:10.199Z,98931.04
2022-08-19T04:05:16.420Z,98940.02
2022-08-19T04:15:22.540Z,98950.23
2022-08-19T04:25:28.537Z,98951.52
2022-08-19T04:35:41.094Z,98931.13
2022-08-19T04:45:47.837Z,98928.86
2022-08-19T04:55:54.860Z,98937.97
2022-08-19T05:06:00.762Z,98949.42
2022-08-19T05:16:08.011Z,98956.14
2022-08-19T05:26:13.918Z,98954.23
2022-08-19T05:36:21.047Z,98955.27
2022-08-19T05:46:28.073Z,98964.67
2022-08-19T05:56:39.083Z,98962.23
2022-08-19T06:06:45.120Z,98956.59
2022-08-19T06:16:53.331Z,98963.50
2022-08-19T06:27:02.559Z,98981.30
2022-08-19T06:37:08.553Z,98975.33
2022-08-19T06:47:23.166Z,98957.86
2022-08-19T06:57:33.795Z,98948.48
2022-08-19T07:07:39.736Z,98964.34
2022-08-19T07:17:52.596Z,98983.33
2022-08-19T07:27:59.250Z,98973.23
2022-08-19T07:38:07.647Z,98972.66
2022-08-19T07:48:13.547Z,98978.38
2022-08-19T07:58:23.450Z,98999.50
2022-08-19T08:08:48.361Z,98991.76
2022-08-19T08:18:54.416Z,98994.42
2022-08-19T08:29:00.423Z,99011.14
2022-08-19T08:39:06.667Z,99010.80
2022-08-19T08:49:22.566Z,99008.42
2022-08-19T08:59:33.424Z,99014.36
2022-08-19T09:09:44.449Z,99016.84
2022-08-19T09:19:58.145Z,99016.05
2022-08-19T09:30:04.354Z,99006.30
2022-08-19T09:40:13.056Z,99006.77
2022-08-19T09:50:20.367Z,98998.64
2022-08-19T10:00:26.345Z,98993.23
2022-08-19T10:10:36.906Z,98989.64
2022-08-19T10:20:43.372Z,98984.23
2022-08-19T10:30:49.518Z,98982.24
2022-08-19T10:40:55.706Z,98975.13
2022-08-19T10:51:22.833Z,98976.52
2022-08-19T11:01:31.108Z,98976.05
2022-08-19T11:11:40.610Z,98957.76
2022-08-19T11:21:48.669Z,98944.05
2022-08-19T11:31:56.185Z,98927.33
2022-08-19T11:42:04.025Z,98920.41
2022-08-19T11:52:10.258Z,98918.85
2022-08-19T12:02:17.217Z,98929.84
2022-08-19T12:12:24.576Z,98924.08
2022-08-19T12:22:30.992Z,98911.70
2022-08-19T12:32:37.868Z,98910.40
2022-08-19T12:42:44.393Z,98914.91
2022-08-19T12:52:50.603Z,98917.30
2022-08-19T13:02:56.994Z,98921.16
2022-08-19T13:13:04.298Z,98916.40
2022-08-19T13:23:10.476Z,98918.23
2022-08-19T13:33:16.586Z,98913.27
2022-08-19T13:43:24.583Z,98910.23
2022-08-19T13:53:31.437Z,98905.04
2022-08-19T14:03:38.946Z,98901.98
2022-08-19T14:13:44.705Z,98897.80
2022-08-19T14:23:50.785Z,98899.27
2022-08-19T14:33:57.144Z,98902.15
2022-08-19T14:44:02.481Z,98902.05
2022-08-19T14:54:08.739Z,98893.71
2022-08-19T15:04:14.894Z,98884.05
2022-08-19T15:14:21.981Z,98878.73
2022-08-19T15:24:28.288Z,98872.05
2022-08-19T15:34:32.597Z,98877.48
2022-08-19T15:44:38.457Z,98861.23
2022-08-19T15:54:44.261Z,98854.34
2022-08-19T16:05:06.997Z,98856.52
2022-08-19T16:15:15.141Z,98849.19
2022-08-19T16:25:21.735Z,98845.38
2022-08-19T16:35:26.002Z,98840.19
2022-08-19T16:45:32.654Z,98835.02
2022-08-19T16:55:38.821Z,98850.09
2022-08-19T17:05:46.599Z,98879.73
2022-08-19T17:15:52.506Z,98899.20
2022-08-19T17:25:58.560Z,98906.62
2022-08-19T17:36:06.649Z,98915.38
2022-08-19T17:46:17.580Z,98914.67
2022-08-19T17:56:25.010Z,98921.45
2022-08-19T18:06:29.723Z,98912.98
2022-08-19T18:16:36.610Z,98922.21
2022-08-19T18:26:42.653Z,98933.98
2022-08-19T18:36:53.707Z,98927.14
2022-08-19T18:47:17.755Z,98916.27
2022-08-19T18:57:24.906Z,98932.60
2022-08-19T19:07:32.184Z,98928.93
2022-08-19T19:17:38.249Z,98917.14
2022-08-19T19:27:45.293Z,98934.14
2022-08-19T19:37:52.817Z,98945.19
2022-08-19T19:48:00.569Z,98970.13
2022-08-19T19:58:07.155Z,98983.41
2022-08-19T20:08:31.090Z,99010.39
2022-08-19T20:18:37.087Z,99040.63
2022-08-19T20:28:43.435Z,99046.68
2022-08-19T20:38:56.642Z,99030.07
2022-08-19T20:49:03.069Z,99012.46
2022-08-19T20:59:11.895Z,99053.13
2022-08-19T21:09:18.190Z,99117.33
2022-08-19T21:19:24.367Z,99176.47
2022-08-19T21:29:32.126Z,99158.48
2022-08-19T21:39:37.928Z,99111.91
2022-08-19T21:49:43.960Z,99061.88
2022-08-19T21:59:49.780Z,99084.20
2022-08-19T22:09:55.768Z,99100.10
2022-08-19T22:20:01.718Z,99095.21
2022-08-19T22:30:11.135Z,99065.34
2022-08-19T22:40:17.123Z,99073.61
2022-08-19T22:50:23.686Z,99062.58
2022-08-19T23:00:31.160Z,99064.52
2022-08-19T23:10:37.013Z,99074.59
2022-08-19T23:20:44.881Z,99083.11
2022-08-19T23:30:52.422Z,99090.19
2022-08-19T23:41:00.702Z,99110.41
2022-08-19T23:51:10.470Z,99125.65
